Time;durP1;ratioP1;P1;durP2;ratioP2;P2;SDS_P1;SDS_P2;PMS_P1;PMS_P2;Temp;Humidity;BMP_temperature;BMP_pressure;BME280_temperature;BME280_humidity;BME280_pressure;Samples;Min_cycle;Max_cycle;Signal;HPM_P1;HPM_P2
2023/04/22 00:00:07;;;;;;;6.00;4.93;;;13.80;92.50;;;;;;5097561;28;20425;-57
2023/04/22 00:02:36;;;;;;;7.60;5.10;;;13.80;93.10;;;;;;5098106;28;20506;-55
2023/04/22 00:05:03;;;;;;;7.27;5.80;;;13.80;92.90;;;;;;5097140;28;20458;-56
2023/04/22 00:07:31;;;;;;;9.70;6.23;;;13.80;93.50;;;;;;5097996;28;20449;-58
2023/04/22 00:09:58;;;;;;;9.27;5.67;;;13.80;93.60;;;;;;5097690;28;20427;-58
2023/04/22 00:12:25;;;;;;;8.07;5.90;;;13.70;93.60;;;;;;5097801;28;20538;-59
2023/04/22 00:14:52;;;;;;;6.87;5.70;;;13.70;93.80;;;;;;5098125;28;20458;-58
2023/04/22 00:17:19;;;;;;;10.93;5.10;;;13.60;94.10;;;;;;5097803;28;20462;-59
2023/04/22 00:19:46;;;;;;;7.67;4.97;;;13.60;94.60;;;;;;5096965;28;20427;-58
2023/04/22 00:22:13;;;;;;;8.13;5.23;;;13.60;94.80;;;;;;5097070;28;20472;-60
2023/04/22 00:24:41;;;;;;;8.97;5.10;;;13.60;94.30;;;;;;5097448;28;20449;-56
2023/04/22 00:27:08;;;;;;;9.33;5.20;;;13.60;94.80;;;;;;5097121;28;20465;-59
2023/04/22 00:29:35;;;;;;;8.23;5.30;;;13.50;95.00;;;;;;5096338;28;20493;-59
2023/04/22 00:32:02;;;;;;;7.60;5.07;;;13.50;95.10;;;;;;5096929;28;20470;-58
2023/04/22 00:34:29;;;;;;;8.10;5.47;;;13.50;95.60;;;;;;5097313;28;20498;-58
2023/04/22 00:36:56;;;;;;;11.87;5.80;;;13.40;95.80;;;;;;5096813;28;20442;-58
2023/04/22 00:39:23;;;;;;;11.40;6.77;;;13.40;95.80;;;;;;5097174;28;20443;-58
2023/04/22 00:41:52;;;;;;;8.50;6.30;;;13.40;96.00;;;;;;5096731;28;20462;-58
2023/04/22 00:44:18;;;;;;;10.03;6.50;;;13.40;96.50;;;;;;5097007;28;20439;-58
2023/04/22 00:46:45;;;;;;;8.33;5.40;;;13.40;96.70;;;;;;5097345;28;20435;-57
2023/04/22 00:49:12;;;;;;;13.63;6.17;;;13.40;97.10;;;;;;5096115;28;20477;-59
2023/04/22 00:51:39;;;;;;;7.87;4.83;;;13.40;97.00;;;;;;5097083;28;20445;-59
2023/04/22 00:54:06;;;;;;;7.40;5.60;;;13.30;97.30;;;;;;5096269;28;20573;-56
2023/04/22 00:56:36;;;;;;;6.97;5.30;;;13.30;97.30;;;;;;5095944;28;20462;-58
2023/04/22 00:59:04;;;;;;;6.90;5.67;;;13.30;97.60;;;;;;5096274;28;20466;-60
2023/04/22 01:01:31;;;;;;;8.30;5.70;;;13.20;97.80;;;;;;5096429;28;20446;-58
2023/04/22 01:03:59;;;;;;;6.73;5.47;;;13.20;98.00;;;;;;5096299;28;20454;-60
2023/04/22 01:06:30;;;;;;;7.63;4.57;;;13.20;98.30;;;;;;5096508;28;20462;-57
2023/04/22 01:08:57;;;;;;;7.50;4.90;;;13.10;98.70;;;;;;5096252;28;20427;-60
2023/04/22 01:11:24;;;;;;;8.87;5.20;;;13.10;98.70;;;;;;5096110;28;20468;-58
2023/04/22 01:13:52;;;;;;;6.10;4.93;;;13.00;99.10;;;;;;5096271;28;20454;-58
2023/04/22 01:16:21;;;;;;;10.30;5.30;;;13.00;99.00;;;;;;5095846;28;20445;-58
2023/04/22 01:18:47;;;;;;;8.63;5.57;;;13.00;99.70;;;;;;5096399;28;20462;-58
2023/04/22 01:21:15;;;;;;;8.50;4.60;;;13.00;99.70;;;;;;5095960;28;20434;-60
2023/04/22 01:23:44;;;;;;;12.73;6.00;;;13.00;99.90;;;;;;5096532;28;20498;-61
2023/04/22 01:26:11;;;;;;;9.20;6.17;;;13.00;99.90;;;;;;5096650;28;20438;-59
2023/04/22 01:28:38;;;;;;;13.37;6.50;;;13.00;99.90;;;;;;5096072;28;20466;-59
2023/04/22 01:31:05;;;;;;;6.40;4.60;;;13.00;99.90;;;;;;5096482;28;20489;-59
2023/04/22 01:33:33;;;;;;;7.77;5.80;;;12.90;99.90;;;;;;5096540;28;20520;-59
2023/04/22 01:36:00;;;;;;;11.70;5.90;;;12.80;99.90;;;;;;5096422;28;20462;-58
2023/04/22 01:38:27;;;;;;;6.37;4.93;;;12.80;99.90;;;;;;5096007;28;20470;-58
2023/04/22 01:40:56;;;;;;;8.27;5.33;;;12.70;99.90;;;;;;5096152;28;20446;-58
2023/04/22 01:43:23;;;;;;;8.53;5.03;;;12.60;99.90;;;;;;5095748;28;20529;-60
2023/04/22 01:45:50;;;;;;;7.47;6.23;;;12.60;99.90;;;;;;5096144;28;20466;-58
2023/04/22 01:48:17;;;;;;;6.83;5.23;;;12.60;99.90;;;;;;5095849;28;20424;-56
2023/04/22 01:50:43;;;;;;;7.70;5.50;;;12.50;99.90;;;;;;5095983;28;20596;-60
2023/04/22 01:53:11;;;;;;;7.43;5.50;;;12.50;99.90;;;;;;5096136;28;20454;-59
2023/04/22 01:55:38;;;;;;;9.10;5.70;;;12.50;99.90;;;;;;5095113;28;20467;-60
2023/04/22 01:58:06;;;;;;;7.97;5.30;;;12.50;99.90;;;;;;5095878;28;20449;-58
2023/04/22 02:00:33;;;;;;;6.50;4.87;;;12.50;99.90;;;;;;5095673;28;20450;-56
2023/04/22 02:03:00;;;;;;;8.23;5.30;;;12.50;99.90;;;;;;5095857;28;20438;-59
2023/04/22 02:05:27;;;;;;;11.33;5.83;;;12.50;99.90;;;;;;5095923;28;20430;-56
2023/04/22 02:07:54;;;;;;;7.10;5.37;;;12.40;99.90;;;;;;5095108;28;20481;-55
2023/04/22 02:10:22;;;;;;;6.10;4.77;;;12.40;99.90;;;;;;5097586;28;20442;-57
2023/04/22 02:12:49;;;;;;;7.83;5.80;;;12.40;99.90;;;;;;5099239;28;20442;-57
2023/04/22 02:15:17;;;;;;;7.00;5.53;;;12.30;99.90;;;;;;5099248;28;20477;-56
2023/04/22 02:17:45;;;;;;;6.40;5.40;;;12.30;99.90;;;;;;5099635;28;20438;-58
2023/04/22 02:20:12;;;;;;;10.93;5.70;;;12.30;99.90;;;;;;5099058;28;20462;-58
2023/04/22 02:22:42;;;;;;;6.40;5.10;;;12.30;99.90;;;;;;5099635;28;20438;-56
2023/04/22 02:25:11;;;;;;;11.30;5.70;;;12.30;99.90;;;;;;5099479;28;20426;-58
2023/04/22 02:27:38;;;;;;;7.43;5.47;;;12.30;99.90;;;;;;5099973;28;20472;-57
2023/04/22 02:30:06;;;;;;;8.83;6.07;;;12.20;99.90;;;;;;5099433;28;20438;-58
2023/04/22 02:32:35;;;;;;;8.23;4.97;;;12.20;99.90;;;;;;5098928;28;20477;-56
2023/04/22 02:35:02;;;;;;;7.20;5.33;;;12.20;99.90;;;;;;5099144;28;20479;-53
2023/04/22 02:37:29;;;;;;;5.87;4.80;;;12.10;99.90;;;;;;5098662;28;20453;-55
2023/04/22 02:39:56;;;;;;;7.33;5.57;;;12.10;99.90;;;;;;5099278;28;20487;-53
2023/04/22 02:42:23;;;;;;;21.50;7.03;;;12.10;99.90;;;;;;5099046;28;20462;-56
2023/04/22 02:44:50;;;;;;;7.73;5.87;;;12.00;99.90;;;;;;5098828;28;20473;-58
2023/04/22 02:47:17;;;;;;;8.00;5.40;;;12.00;99.90;;;;;;5099290;28;20466;-55
2023/04/22 02:49:45;;;;;;;7.80;5.13;;;12.00;99.90;;;;;;5098630;28;20470;-57
2023/04/22 02:52:12;;;;;;;8.17;5.90;;;11.90;99.90;;;;;;5098512;28;20434;-57
2023/04/22 02:54:39;;;;;;;8.30;5.00;;;11.90;99.90;;;;;;5099334;28;20489;-58
2023/04/22 02:57:06;;;;;;;7.57;5.80;;;11.90;99.90;;;;;;5098509;28;20458;-58
2023/04/22 02:59:34;;;;;;;8.07;5.57;;;11.90;99.90;;;;;;5098683;28;20470;-56
2023/04/22 03:02:01;;;;;;;8.20;5.80;;;11.90;99.90;;;;;;5098418;28;20434;-58
2023/04/22 03:04:28;;;;;;;6.77;6.07;;;11.80;99.90;;;;;;5099093;28;20421;-58
2023/04/22 03:06:56;;;;;;;7.57;4.93;;;11.80;99.90;;;;;;5098280;28;20468;-58
2023/04/22 03:09:23;;;;;;;6.50;5.13;;;11.80;99.90;;;;;;5098961;28;20472;-58
2023/04/22 03:11:50;;;;;;;12.77;7.73;;;11.80;99.90;;;;;;5098728;28;20449;-57
2023/04/22 03:14:16;;;;;;;10.67;6.27;;;11.70;99.90;;;;;;5097926;28;20508;-57
2023/04/22 03:16:43;;;;;;;7.50;5.50;;;11.70;99.90;;;;;;5098206;28;20450;-54
2023/04/22 03:19:10;;;;;;;8.10;6.03;;;11.70;99.90;;;;;;5098739;28;20442;-56
2023/04/22 03:21:37;;;;;;;6.07;4.60;;;11.60;99.90;;;;;;5098104;28;20477;-53
2023/04/22 03:24:06;;;;;;;11.17;5.70;;;11.60;99.90;;;;;;5098174;28;20438;-56
2023/04/22 03:26:33;;;;;;;5.83;4.93;;;11.60;99.90;;;;;;5097821;28;20445;-55
2023/04/22 03:29:00;;;;;;;6.87;5.33;;;11.60;99.90;;;;;;5098290;28;20462;-56
2023/04/22 03:31:26;;;;;;;8.60;4.97;;;11.50;99.90;;;;;;5098432;28;20443;-55
2023/04/22 03:33:53;;;;;;;7.30;5.83;;;11.50;99.90;;;;;;5098095;28;20512;-58
2023/04/22 03:36:20;;;;;;;7.00;5.40;;;11.50;99.90;;;;;;5098204;28;20464;-55
2023/04/22 03:38:47;;;;;;;9.00;4.90;;;11.40;99.90;;;;;;5097451;28;20438;-59
2023/04/22 03:41:15;;;;;;;7.03;5.17;;;11.40;99.90;;;;;;5098452;28;20441;-58
2023/04/22 03:43:42;;;;;;;10.57;6.40;;;11.40;99.90;;;;;;5097070;28;20438;-58
2023/04/22 03:46:09;;;;;;;8.53;6.47;;;11.40;99.90;;;;;;5097675;28;20490;-58
2023/04/22 03:48:36;;;;;;;7.53;5.30;;;11.30;99.90;;;;;;5098117;28;20448;-58
2023/04/22 03:51:03;;;;;;;6.10;5.00;;;11.30;99.90;;;;;;5097551;28;20442;-59
2023/04/22 03:53:30;;;;;;;9.90;6.80;;;11.30;99.90;;;;;;5097182;28;20443;-58
2023/04/22 03:55:57;;;;;;;9.93;6.73;;;11.30;99.90;;;;;;5097659;28;20537;-58
2023/04/22 03:58:25;;;;;;;9.40;5.43;;;11.30;99.90;;;;;;5097268;28;20446;-59
2023/04/22 04:00:52;;;;;;;7.17;4.60;;;11.30;99.90;;;;;;5097013;28;20434;-58
2023/04/22 04:03:19;;;;;;;11.17;6.20;;;11.20;99.90;;;;;;5096952;28;20498;-54
2023/04/22 04:05:46;;;;;;;9.73;5.10;;;11.20;99.90;;;;;;5097113;28;20433;-56
2023/04/22 04:08:13;;;;;;;8.03;5.60;;;11.20;99.90;;;;;;5097090;28;20477;-57
2023/04/22 04:10:40;;;;;;;13.53;6.17;;;11.10;99.90;;;;;;5097484;28;20482;-56
2023/04/22 04:13:07;;;;;;;9.57;5.83;;;11.20;99.90;;;;;;5097178;28;20445;-57
2023/04/22 04:15:36;;;;;;;11.27;5.53;;;11.20;99.90;;;;;;5096606;28;20493;-58
2023/04/22 04:18:04;;;;;;;10.40;5.83;;;11.20;99.90;;;;;;5096180;28;20433;-59
2023/04/22 04:20:32;;;;;;;10.37;6.13;;;11.10;99.90;;;;;;5096222;28;20443;-58
2023/04/22 04:22:59;;;;;;;8.53;5.80;;;11.20;99.90;;;;;;5097426;28;20463;-58
2023/04/22 04:25:25;;;;;;;8.07;5.17;;;11.20;99.90;;;;;;5096962;28;20434;-56
2023/04/22 04:27:53;;;;;;;8.33;6.30;;;11.20;99.90;;;;;;5096998;28;20474;-57
2023/04/22 04:30:20;;;;;;;9.50;6.83;;;11.10;99.90;;;;;;5096716;28;20426;-58
2023/04/22 04:32:48;;;;;;;7.97;5.97;;;11.10;99.90;;;;;;5097077;28;20422;-53
2023/04/22 04:35:17;;;;;;;15.90;5.63;;;11.10;99.90;;;;;;5096550;28;20494;-58
2023/04/22 04:37:45;;;;;;;11.70;5.50;;;11.10;99.90;;;;;;5097340;28;20450;-58
2023/04/22 04:40:12;;;;;;;11.90;5.93;;;11.10;99.90;;;;;;5096627;28;20458;-59
2023/04/22 04:42:39;;;;;;;8.47;4.77;;;11.10;99.90;;;;;;5096035;28;20443;-58
2023/04/22 04:45:08;;;;;;;9.67;6.30;;;11.10;99.90;;;;;;5097103;28;20442;-58
2023/04/22 04:47:35;;;;;;;13.33;5.90;;;11.10;99.90;;;;;;5097019;28;20494;-58
2023/04/22 04:50:04;;;;;;;10.17;5.40;;;11.10;99.90;;;;;;5096424;28;20450;-53
2023/04/22 04:52:31;;;;;;;9.63;5.87;;;11.10;99.90;;;;;;5096544;28;20470;-52
2023/04/22 04:54:58;;;;;;;9.53;6.07;;;11.10;99.90;;;;;;5097095;28;20477;-53
2023/04/22 04:57:25;;;;;;;7.13;5.20;;;11.10;99.90;;;;;;5096542;28;20442;-57
2023/04/22 04:59:52;;;;;;;7.00;5.50;;;11.10;99.90;;;;;;5095935;28;20497;-56
2023/04/22 05:02:19;;;;;;;8.50;6.37;;;11.10;99.90;;;;;;5096101;28;20525;-57
2023/04/22 05:04:45;;;;;;;9.43;6.10;;;11.10;99.90;;;;;;5095963;28;20462;-57
2023/04/22 05:07:14;;;;;;;9.40;5.30;;;11.10;99.90;;;;;;5095780;28;20423;-57
2023/04/22 05:09:41;;;;;;;10.00;6.60;;;11.10;99.90;;;;;;5096023;28;20439;-58
2023/04/22 05:12:07;;;;;;;7.70;5.80;;;11.10;99.90;;;;;;5095868;28;21029;-57
2023/04/22 05:14:35;;;;;;;8.00;5.70;;;11.20;99.90;;;;;;5095559;28;20509;-58
2023/04/22 05:17:02;;;;;;;7.33;5.87;;;11.20;99.90;;;;;;5096248;28;20541;-58
2023/04/22 05:19:29;;;;;;;10.67;5.90;;;11.10;99.90;;;;;;5095361;28;20427;-56
2023/04/22 05:21:56;;;;;;;8.53;6.60;;;11.20;99.90;;;;;;5095940;28;20430;-58
2023/04/22 05:24:25;;;;;;;8.97;6.53;;;11.20;99.90;;;;;;5095563;28;20458;-57
2023/04/22 05:26:52;;;;;;;10.60;6.60;;;11.20;99.90;;;;;;5096006;28;20435;-55
2023/04/22 05:29:20;;;;;;;9.33;6.50;;;11.30;99.90;;;;;;5095111;28;20450;-59
2023/04/22 05:31:47;;;;;;;6.50;5.50;;;11.30;99.90;;;;;;5095453;28;20430;-58
2023/04/22 05:34:14;;;;;;;11.17;6.70;;;11.40;99.90;;;;;;5096005;28;20474;-57
2023/04/22 05:36:41;;;;;;;9.57;6.40;;;11.40;99.90;;;;;;5095273;28;20477;-60
2023/04/22 05:39:08;;;;;;;16.33;6.77;;;11.40;99.90;;;;;;5095503;28;20449;-57
2023/04/22 05:41:37;;;;;;;10.60;6.10;;;11.50;99.90;;;;;;5095796;28;20473;-59
2023/04/22 05:44:03;;;;;;;9.37;6.90;;;11.50;99.90;;;;;;5094641;28;20458;-53
2023/04/22 05:46:30;;;;;;;9.30;6.07;;;11.50;99.90;;;;;;5095356;28;20461;-56
2023/04/22 05:48:57;;;;;;;13.40;7.60;;;11.50;99.90;;;;;;5095395;28;20474;-59
2023/04/22 05:51:24;;;;;;;11.47;6.00;;;11.50;99.90;;;;;;5095930;28;20443;-55
2023/04/22 05:53:51;;;;;;;8.97;6.00;;;11.60;99.90;;;;;;5095657;28;20466;-57
2023/04/22 05:56:19;;;;;;;12.17;6.50;;;11.60;99.90;;;;;;5094443;28;20407;-57
2023/04/22 05:58:48;;;;;;;10.70;6.70;;;11.70;99.90;;;;;;5095602;28;20438;-58
2023/04/22 06:01:15;;;;;;;14.47;6.90;;;11.70;99.90;;;;;;5095795;28;20442;-58
2023/04/22 06:03:41;;;;;;;8.90;6.13;;;11.80;99.90;;;;;;5095509;28;20442;-58
2023/04/22 06:06:08;;;;;;;12.50;7.83;;;11.90;99.90;;;;;;5094837;28;20518;-58
2023/04/22 06:08:35;;;;;;;13.13;7.47;;;12.00;99.90;;;;;;5095527;28;20490;-58
2023/04/22 06:11:02;;;;;;;8.07;6.17;;;12.10;99.90;;;;;;5096195;28;20444;-56
2023/04/22 06:13:29;;;;;;;9.10;7.07;;;12.20;99.90;;;;;;5096424;28;20886;-57
2023/04/22 06:15:57;;;;;;;12.43;6.30;;;12.30;99.90;;;;;;5095231;28;20489;-59
2023/04/22 06:18:24;;;;;;;10.50;6.60;;;12.40;99.90;;;;;;5095142;28;20470;-58
2023/04/22 06:20:51;;;;;;;12.83;6.37;;;12.50;99.90;;;;;;5095271;28;20427;-59
2023/04/22 06:23:18;;;;;;;12.70;6.77;;;12.60;99.90;;;;;;5095062;28;20458;-58
2023/04/22 06:25:46;;;;;;;14.00;6.90;;;12.70;99.90;;;;;;5095234;28;20415;-58
2023/04/22 06:28:13;;;;;;;8.83;6.63;;;12.80;99.90;;;;;;5094931;28;20502;-54
2023/04/22 06:30:39;;;;;;;16.67;6.97;;;12.90;99.90;;;;;;5095186;28;20446;-59
2023/04/22 06:33:08;;;;;;;10.10;6.27;;;13.10;99.90;;;;;;5095498;28;20450;-58
2023/04/22 06:35:35;;;;;;;10.33;6.50;;;13.20;99.90;;;;;;5095906;28;20532;-55
2023/04/22 06:38:02;;;;;;;11.63;5.93;;;13.40;99.90;;;;;;5095535;28;20450;-56
2023/04/22 06:40:29;;;;;;;11.93;7.20;;;13.50;99.90;;;;;;5095256;28;20457;-57
2023/04/22 06:42:56;;;;;;;12.67;8.33;;;13.60;99.90;;;;;;5095638;28;20492;-56
2023/04/22 06:45:23;;;;;;;12.43;7.80;;;13.60;99.90;;;;;;5095620;28;20456;-57
2023/04/22 06:47:54;;;;;;;13.63;6.20;;;13.80;99.90;;;;;;5095179;28;20425;-57
2023/04/22 06:50:22;;;;;;;11.47;7.13;;;13.90;99.90;;;;;;5095033;28;20907;-59
2023/04/22 06:52:49;;;;;;;10.27;6.70;;;14.00;99.90;;;;;;5095050;28;20462;-58
2023/04/22 06:55:16;;;;;;;14.07;6.27;;;14.10;99.90;;;;;;5095367;28;20486;-56
2023/04/22 06:57:42;;;;;;;9.77;7.70;;;14.20;99.90;;;;;;5099117;28;20438;-57
2023/04/22 07:00:10;;;;;;;7.87;6.63;;;14.30;99.90;;;;;;5099005;28;20525;-58
2023/04/22 07:02:37;;;;;;;11.77;6.90;;;14.40;99.90;;;;;;5099338;28;20470;-58
2023/04/22 07:05:04;;;;;;;16.53;7.30;;;14.50;99.90;;;;;;5098907;28;20418;-58
2023/04/22 07:07:33;;;;;;;11.87;7.53;;;14.60;99.90;;;;;;5098732;28;20508;-55
2023/04/22 07:10:00;;;;;;;10.23;7.90;;;14.70;99.90;;;;;;5099111;28;20465;-54
2023/04/22 07:12:26;;;;;;;15.03;7.10;;;14.90;99.90;;;;;;5098748;28;20446;-60
2023/04/22 07:14:53;;;;;;;11.97;7.60;;;15.00;99.90;;;;;;5098341;28;20494;-59
2023/04/22 07:17:21;;;;;;;8.53;6.40;;;15.10;99.90;;;;;;5098918;28;20461;-57
2023/04/22 07:19:48;;;;;;;8.43;6.10;;;15.30;99.90;;;;;;5099011;28;20534;-55
2023/04/22 07:22:15;;;;;;;8.83;7.33;;;15.40;99.90;;;;;;5098360;28;20446;-57
2023/04/22 07:24:43;;;;;;;8.43;6.70;;;15.50;99.90;;;;;;5099043;28;20438;-58
2023/04/22 07:27:10;;;;;;;9.63;6.17;;;15.70;99.90;;;;;;5098619;28;20446;-57
2023/04/22 07:29:37;;;;;;;9.00;5.77;;;15.80;99.80;;;;;;5099041;28;20466;-57
2023/04/22 07:32:04;;;;;;;11.80;7.33;;;15.90;99.60;;;;;;5098915;28;20469;-56
2023/04/22 07:34:30;;;;;;;8.07;7.27;;;16.00;98.30;;;;;;5098563;28;20439;-58
2023/04/22 07:36:57;;;;;;;10.97;7.60;;;16.20;97.40;;;;;;5099361;28;20459;-58
2023/04/22 07:39:25;;;;;;;9.70;6.50;;;16.30;97.50;;;;;;5099266;28;20457;-59
2023/04/22 07:41:55;;;;;;;8.67;6.60;;;16.40;96.60;;;;;;5098883;28;20432;-56
2023/04/22 07:44:22;;;;;;;9.63;5.97;;;16.50;96.50;;;;;;5098770;28;20466;-58
2023/04/22 07:46:49;;;;;;;9.10;6.90;;;16.70;95.40;;;;;;5098658;28;20423;-58
2023/04/22 07:49:16;;;;;;;12.87;6.57;;;16.80;94.80;;;;;;5098669;28;20443;-58
2023/04/22 07:51:44;;;;;;;13.87;6.97;;;17.10;95.00;;;;;;5098543;28;20462;-56
2023/04/22 07:54:10;;;;;;;9.13;7.03;;;17.50;94.20;;;;;;5097614;28;20434;-57
2023/04/22 07:56:37;;;;;;;8.10;6.80;;;18.50;92.10;;;;;;5097719;28;20486;-58
2023/04/22 07:59:06;;;;;;;14.27;7.50;;;20.30;86.40;;;;;;5097141;28;20454;-58
2023/04/22 08:01:32;;;;;;;8.70;6.77;;;22.30;73.70;;;;;;5098523;28;20449;-58
2023/04/22 08:03:59;;;;;;;8.27;6.63;;;24.30;61.70;;;;;;5097465;28;20473;-58
2023/04/22 08:06:27;;;;;;;12.40;7.37;;;26.10;55.90;;;;;;5094883;28;20443;-57
2023/04/22 08:08:54;;;;;;;7.60;6.50;;;27.80;50.90;;;;;;5092328;28;20577;-58
2023/04/22 08:11:21;;;;;;;8.17;7.40;;;29.20;46.90;;;;;;5092250;28;20442;-60
2023/04/22 08:13:48;;;;;;;8.77;7.90;;;30.10;43.70;;;;;;5096977;28;20462;-59
2023/04/22 08:16:16;;;;;;;10.47;7.50;;;31.10;41.50;;;;;;5091189;28;20502;-57
2023/04/22 08:18:43;;;;;;;7.27;6.63;;;31.80;39.50;;;;;;5093996;28;20438;-59
2023/04/22 08:21:11;;;;;;;9.70;8.00;;;31.90;38.00;;;;;;5087969;28;20778;-60
2023/04/22 08:23:38;;;;;;;7.93;7.10;;;32.20;37.30;;;;;;5091363;28;20812;-59
2023/04/22 08:26:07;;;;;;;9.20;7.73;;;32.50;36.90;;;;;;5095121;28;20435;-58
2023/04/22 08:28:34;;;;;;;9.93;7.27;;;32.80;36.30;;;;;;5096780;28;20462;-57
2023/04/22 08:31:00;;;;;;;8.17;6.53;;;33.20;35.60;;;;;;5092692;28;20458;-58
2023/04/22 08:33:29;;;;;;;8.17;7.47;;;33.50;35.00;;;;;;5095296;28;20494;-57
2023/04/22 08:35:56;;;;;;;9.27;7.77;;;34.00;34.40;;;;;;5094550;28;20451;-58
2023/04/22 08:38:23;;;;;;;7.73;6.33;;;34.00;33.70;;;;;;5094271;28;20438;-58
2023/04/22 08:40:50;;;;;;;9.97;7.20;;;34.00;33.30;;;;;;5091922;28;20516;-58
2023/04/22 08:43:20;;;;;;;8.97;7.40;;;33.80;33.50;;;;;;5097431;28;20453;-57
2023/04/22 08:45:48;;;;;;;9.70;7.10;;;33.70;33.20;;;;;;5093374;28;20490;-57
2023/04/22 08:48:16;;;;;;;7.57;6.87;;;33.90;33.00;;;;;;5087861;28;20470;-59
2023/04/22 08:50:46;;;;;;;13.77;6.10;;;34.30;32.40;;;;;;5094507;28;20442;-60
2023/04/22 08:53:14;;;;;;;6.90;6.20;;;34.20;32.10;;;;;;5093724;28;20426;-59
2023/04/22 08:55:44;;;;;;;8.00;6.63;;;34.00;32.20;;;;;;5093776;28;20477;-61
2023/04/22 08:58:12;;;;;;;7.27;6.57;;;33.50;32.60;;;;;;5092268;28;20466;-59
2023/04/22 09:00:42;;;;;;;7.03;6.33;;;33.20;32.80;;;;;;5091588;28;20442;-58
2023/04/22 09:03:09;;;;;;;7.93;6.03;;;32.80;33.90;;;;;;5088586;28;20490;-55
2023/04/22 09:05:38;;;;;;;7.60;6.90;;;32.80;33.60;;;;;;5095927;28;20468;-56
2023/04/22 09:08:07;;;;;;;6.93;6.00;;;32.90;33.70;;;;;;5093328;28;20449;-57
2023/04/22 09:10:36;;;;;;;7.20;5.90;;;33.10;34.40;;;;;;5092193;28;20462;-59
2023/04/22 09:13:04;;;;;;;7.53;6.37;;;33.10;34.60;;;;;;5090475;28;20438;-54
2023/04/22 09:15:31;;;;;;;10.27;7.10;;;33.40;32.80;;;;;;5092139;28;20473;-59
2023/04/22 09:17:58;;;;;;;8.60;6.73;;;33.10;33.50;;;;;;5092068;28;20473;-59
2023/04/22 09:20:27;;;;;;;7.60;6.17;;;32.80;34.10;;;;;;5091981;28;20476;-58
2023/04/22 09:22:54;;;;;;;6.73;6.07;;;32.90;34.20;;;;;;5092500;28;20402;-57
2023/04/22 09:25:25;;;;;;;6.97;6.27;;;33.30;33.60;;;;;;5091409;28;20434;-56
2023/04/22 09:27:54;;;;;;;6.87;6.17;;;33.30;33.70;;;;;;5091702;28;20423;-58
2023/04/22 09:30:24;;;;;;;8.33;6.67;;;33.20;33.90;;;;;;5094174;28;20529;-59
2023/04/22 09:32:55;;;;;;;6.87;6.10;;;33.30;33.50;;;;;;5090236;28;20506;-59
2023/04/22 09:35:30;;;;;;;7.43;6.20;;;33.10;33.90;;;;;;5086270;28;20501;-59
2023/04/22 09:37:58;;;;;;;7.30;5.43;;;33.10;33.60;;;;;;5088739;28;20485;-60
2023/04/22 09:40:27;;;;;;;8.27;6.50;;;33.30;33.50;;;;;;5094037;28;20430;-58
2023/04/22 09:42:57;;;;;;;6.80;6.10;;;33.40;33.30;;;;;;5094011;28;20443;-58
2023/04/22 09:45:28;;;;;;;7.60;6.80;;;33.00;34.60;;;;;;5092036;28;20473;-59
2023/04/22 09:47:56;;;;;;;6.40;5.53;;;33.10;33.40;;;;;;5092836;28;20438;-59
2023/04/22 09:50:26;;;;;;;6.80;6.20;;;33.30;33.40;;;;;;5093631;28;20489;-59
2023/04/22 09:52:56;;;;;;;6.40;5.27;;;33.10;33.40;;;;;;5090406;28;20432;-57
2023/04/22 09:55:24;;;;;;;6.40;5.70;;;33.00;33.50;;;;;;5093762;28;20607;-59
2023/04/22 09:57:54;;;;;;;6.80;5.93;;;33.10;33.80;;;;;;5091190;28;20465;-58
2023/04/22 10:00:22;;;;;;;11.33;5.70;;;32.90;34.40;;;;;;5093164;28;20449;-58
2023/04/22 10:02:48;;;;;;;8.63;7.40;;;33.00;34.00;;;;;;5092776;28;20482;-57
2023/04/22 10:05:16;;;;;;;9.93;8.20;;;33.20;33.40;;;;;;5092620;28;20468;-57
2023/04/22 10:07:44;;;;;;;6.43;5.83;;;33.30;33.80;;;;;;5092521;28;20477;-57
2023/04/22 10:10:11;;;;;;;6.53;5.93;;;33.30;33.50;;;;;;5076652;28;20450;-58
2023/04/22 10:12:38;;;;;;;7.33;5.60;;;32.80;33.90;;;;;;5075137;28;20849;-58
2023/04/22 10:15:08;;;;;;;5.57;5.07;;;32.90;33.90;;;;;;5079533;28;20454;-58
2023/04/22 10:17:39;;;;;;;6.60;4.87;;;33.10;32.90;;;;;;5089719;28;20450;-59
2023/04/22 10:20:12;;;;;;;7.67;5.77;;;33.10;33.10;;;;;;5083939;28;20502;-60
2023/04/22 10:22:40;;;;;;;5.80;5.30;;;33.00;33.60;;;;;;5076061;28;20446;-59
2023/04/22 10:25:11;;;;;;;6.63;5.57;;;32.80;33.10;;;;;;5075367;28;20442;-59
2023/04/22 10:27:39;;;;;;;5.93;5.33;;;32.80;32.30;;;;;;5076881;28;20491;-58
2023/04/22 10:30:09;;;;;;;8.33;6.50;;;32.60;32.70;;;;;;5082713;28;20529;-58
2023/04/22 10:32:36;;;;;;;8.43;5.80;;;32.30;33.90;;;;;;5085953;28;20446;-58
2023/04/22 10:35:12;;;;;;;6.00;5.40;;;32.00;34.20;;;;;;5079371;28;20504;-59
2023/04/22 10:37:42;;;;;;;7.20;6.03;;;31.70;34.30;;;;;;5077909;28;20489;-59
2023/04/22 10:40:12;;;;;;;6.57;5.70;;;31.70;34.70;;;;;;5077995;28;20512;-60
2023/04/22 10:42:41;;;;;;;7.90;5.70;;;31.50;34.40;;;;;;5078941;28;20473;-59
2023/04/22 10:45:13;;;;;;;6.63;5.87;;;31.10;34.60;;;;;;5078456;28;20423;-58
2023/04/22 10:47:40;;;;;;;10.70;5.77;;;30.80;35.00;;;;;;5078104;28;20507;-61
2023/04/22 10:50:17;;;;;;;5.90;5.30;;;30.50;34.60;;;;;;5077998;28;20449;-60
2023/04/22 10:52:47;;;;;;;5.37;4.87;;;29.80;34.30;;;;;;5079182;28;20825;-58
2023/04/22 10:55:15;;;;;;;7.87;5.17;;;29.30;35.90;;;;;;5077957;28;20814;-58
2023/04/22 10:57:43;;;;;;;7.97;5.40;;;29.00;36.60;;;;;;5077975;28;20542;-59
2023/04/22 11:00:30;;;;;;;9.70;5.20;;;28.80;35.70;;;;;;5077814;28;20875;-59
2023/04/22 11:03:25;;;;;;;6.90;5.80;;;28.30;35.10;;;;;;5077627;28;20472;-59
2023/04/22 11:06:16;;;;;;;9.63;6.47;;;27.90;35.00;;;;;;5077436;28;20502;-60
2023/04/22 11:08:47;;;;;;;7.97;5.63;;;27.60;36.60;;;;;;5077724;28;20450;-61
2023/04/22 11:11:14;;;;;;;7.00;5.07;;;27.50;37.10;;;;;;5077649;28;20796;-60
2023/04/22 11:13:42;;;;;;;11.17;9.97;;;27.40;36.90;;;;;;5077748;28;20458;-58
2023/04/22 11:16:10;;;;;;;6.57;5.57;;;27.20;37.40;;;;;;5077209;28;20504;-59
2023/04/22 11:18:38;;;;;;;5.70;5.00;;;26.80;37.30;;;;;;5077298;28;20533;-59
2023/04/22 11:21:07;;;;;;;5.83;4.77;;;26.70;37.40;;;;;;5077396;28;20446;-59
2023/04/22 11:23:35;;;;;;;5.73;5.07;;;26.50;37.50;;;;;;5077559;28;20512;-60
2023/04/22 11:26:03;;;;;;;6.10;5.50;;;26.30;37.90;;;;;;5077599;28;20446;-59
2023/04/22 11:28:30;;;;;;;8.23;5.67;;;25.90;38.40;;;;;;5077141;28;20538;-59
2023/04/22 11:31:08;;;;;;;5.53;4.70;;;25.70;39.00;;;;;;5077554;28;20426;-59
2023/04/22 11:33:37;;;;;;;6.67;4.90;;;25.60;39.50;;;;;;5077393;28;20802;-59
2023/04/22 11:36:05;;;;;;;5.57;5.10;;;25.60;40.60;;;;;;5077415;28;20466;-58
2023/04/22 11:38:32;;;;;;;5.13;4.50;;;25.50;40.40;;;;;;5077470;28;20477;-60
2023/04/22 11:40:59;;;;;;;5.43;4.93;;;25.50;40.30;;;;;;5077401;28;20446;-57
2023/04/22 11:43:26;;;;;;;7.70;4.47;;;25.40;40.00;;;;;;5095476;28;20430;-59
2023/04/22 11:45:56;;;;;;;5.30;4.80;;;25.40;40.30;;;;;;5097066;28;20496;-59
2023/04/22 11:48:24;;;;;;;14.53;5.47;;;25.30;39.60;;;;;;5078532;28;20452;-58
2023/04/22 11:51:08;;;;;;;16.50;4.47;;;25.10;41.60;;;;;;5077390;28;20481;-59
2023/04/22 11:53:35;;;;;;;18.30;5.50;;;25.00;40.00;;;;;;5080713;28;20438;-59
2023/04/22 11:56:03;;;;;;;11.63;4.90;;;25.00;41.90;;;;;;5090642;28;20539;-52
2023/04/22 11:58:30;;;;;;;9.33;5.30;;;24.90;41.60;;;;;;5078557;28;20461;-51
2023/04/22 12:00:59;;;;;;;6.10;5.20;;;25.00;40.90;;;;;;5077639;28;20453;-53
2023/04/22 12:03:27;;;;;;;12.37;5.70;;;24.90;40.60;;;;;;5076887;28;20470;-54
2023/04/22 12:05:57;;;;;;;5.67;4.70;;;25.00;40.50;;;;;;5078928;28;20490;-53
2023/04/22 12:08:25;;;;;;;10.40;5.27;;;24.80;39.60;;;;;;5077145;28;20573;-50
2023/04/22 12:10:54;;;;;;;4.73;4.33;;;24.50;39.70;;;;;;5076928;28;20548;-54
2023/04/22 12:13:22;;;;;;;5.80;5.20;;;24.40;40.40;;;;;;5076356;28;20450;-54
2023/04/22 12:15:54;;;;;;;9.17;5.80;;;24.30;40.50;;;;;;5076541;28;20527;-49
2023/04/22 12:18:29;;;;;;;7.93;5.57;;;24.40;41.00;;;;;;5076638;28;20443;-53
2023/04/22 12:21:01;;;;;;;5.27;4.70;;;24.50;40.90;;;;;;5076933;28;20872;-53
2023/04/22 12:23:28;;;;;;;7.33;5.40;;;24.50;41.90;;;;;;5076656;28;20427;-54
2023/04/22 12:25:55;;;;;;;5.63;4.70;;;24.40;41.20;;;;;;5076481;28;20493;-50
2023/04/22 12:28:22;;;;;;;9.27;4.40;;;24.40;42.50;;;;;;5076520;28;20447;-53
2023/04/22 12:30:49;;;;;;;6.77;4.67;;;24.50;42.00;;;;;;5077069;28;20835;-57
2023/04/22 12:33:15;;;;;;;7.73;5.23;;;24.60;40.90;;;;;;5076551;28;20525;-53
2023/04/22 12:35:42;;;;;;;8.20;5.37;;;24.60;40.30;;;;;;5076045;28;20855;-53
2023/04/22 12:38:11;;;;;;;5.43;4.57;;;24.40;40.70;;;;;;5076080;28;20480;-53
2023/04/22 12:40:37;;;;;;;4.70;4.30;;;24.40;41.10;;;;;;5075990;28;20538;-53
2023/04/22 12:43:04;;;;;;;6.53;5.53;;;24.50;40.80;;;;;;5076014;28;20470;-55
2023/04/22 12:45:31;;;;;;;5.23;4.73;;;24.50;41.40;;;;;;5076187;28;20442;-52